createdAt,value
2018-02-09T00:00:31.689Z,27.62
2018-02-09T00:03:00.113Z,27.05
2018-02-09T00:05:28.442Z,27.37
2018-02-09T00:07:56.815Z,27.27
2018-02-09T00:10:25.142Z,24.98
2018-02-09T00:12:53.518Z,26.20
2018-02-09T00:15:21.866Z,28.55
2018-02-09T00:17:50.193Z,25.92
2018-02-09T00:20:18.541Z,26.27
2018-02-09T00:22:52.813Z,23.67
2018-02-09T00:25:21.165Z,26.55
2018-02-09T00:27:49.502Z,25.42
2018-02-09T00:30:17.850Z,29.00
2018-02-09T00:32:46.182Z,26.05
2018-02-09T00:35:14.533Z,25.58
2018-02-09T00:37:42.957Z,26.52
2018-02-09T00:40:11.309Z,29.00
2018-02-09T00:42:39.641Z,27.83
2018-02-09T00:45:08.049Z,26.40
2018-02-09T00:47:36.381Z,27.90
2018-02-09T00:50:04.729Z,27.75
2018-02-09T00:52:33.102Z,25.52
2018-02-09T00:55:01.425Z,25.80
2018-02-09T00:57:29.786Z,25.05
2018-02-09T00:59:58.113Z,27.83
2018-02-09T01:02:26.485Z,26.37
2018-02-09T01:04:54.813Z,25.95
2018-02-09T01:07:23.181Z,27.20
2018-02-09T01:09:51.501Z,25.00
2018-02-09T01:12:19.898Z,24.00
2018-02-09T01:14:48.225Z,26.70
2018-02-09T01:17:16.625Z,25.05
2018-02-09T01:19:44.953Z,23.98
2018-02-09T01:22:13.310Z,26.37
2018-02-09T01:24:41.638Z,24.80
2018-02-09T01:27:09.972Z,24.92
2018-02-09T01:29:38.430Z,24.02
2018-02-09T01:32:06.805Z,26.98
2018-02-09T01:34:35.153Z,26.17
2018-02-09T01:37:03.566Z,27.15
2018-02-09T01:39:31.942Z,25.30
2018-02-09T01:42:00.273Z,26.05
2018-02-09T01:44:28.693Z,26.75
2018-02-09T01:46:57.029Z,27.65
2018-02-09T01:49:25.425Z,26.42
2018-02-09T01:51:53.808Z,27.20
2018-02-09T01:54:22.165Z,25.98
2018-02-09T01:56:50.497Z,26.48
2018-02-09T01:59:18.857Z,23.67
2018-02-09T02:01:47.233Z,24.25
2018-02-09T02:04:15.609Z,25.92
2018-02-09T02:06:43.938Z,22.40
2018-02-09T02:09:12.325Z,22.70
2018-02-09T02:11:40.748Z,24.65
2018-02-09T02:14:09.073Z,23.40
2018-02-09T02:16:37.493Z,23.77
2018-02-09T02:19:05.873Z,26.12
2018-02-09T02:21:34.255Z,24.87
2018-02-09T02:24:02.580Z,25.27
2018-02-09T02:26:31.010Z,22.30
2018-02-09T02:28:59.336Z,24.87
2018-02-09T02:31:27.696Z,24.75
2018-02-09T02:33:56.020Z,26.17
2018-02-09T02:36:24.418Z,24.37
2018-02-09T02:38:52.737Z,24.37
2018-02-09T02:41:21.093Z,22.92
2018-02-09T02:43:49.433Z,24.27
2018-02-09T02:46:17.831Z,24.65
2018-02-09T02:48:46.151Z,24.87
2018-02-09T02:51:14.573Z,22.87
2018-02-09T02:53:42.954Z,26.42
2018-02-09T02:56:11.313Z,23.67
2018-02-09T02:58:39.655Z,24.67
2018-02-09T03:01:07.994Z,23.73
2018-02-09T03:03:36.357Z,24.23
2018-02-09T03:06:04.690Z,22.98
2018-02-09T03:08:33.089Z,25.55
2018-02-09T03:11:01.417Z,26.17
2018-02-09T03:13:29.865Z,23.08
2018-02-09T03:15:58.194Z,24.35
2018-02-09T03:18:26.621Z,26.77
2018-02-09T03:20:54.996Z,25.48
2018-02-09T03:23:23.349Z,23.15
2018-02-09T03:25:51.753Z,25.62
2018-02-09T03:28:20.133Z,25.27
2018-02-09T03:30:48.457Z,25.45
2018-02-09T03:33:16.815Z,25.02
2018-02-09T03:35:45.145Z,23.33
2018-02-09T03:38:13.496Z,21.58
2018-02-09T03:40:41.913Z,22.42
2018-02-09T03:43:10.297Z,25.15
2018-02-09T03:45:38.633Z,23.25
2018-02-09T03:48:07.045Z,21.10
2018-02-09T03:50:35.397Z,21.87
2018-02-09T03:53:03.797Z,21.42
2018-02-09T03:55:32.145Z,22.87
2018-02-09T03:58:00.478Z,22.55
2018-02-09T04:00:28.929Z,21.30
2018-02-09T04:02:57.362Z,23.48
2018-02-09T04:05:25.690Z,20.73
2018-02-09T04:07:54.021Z,20.62
2018-02-09T04:10:22.437Z,22.98
2018-02-09T04:12:50.773Z,22.42
2018-02-09T04:15:19.225Z,21.52
2018-02-09T04:17:47.577Z,25.48
2018-02-09T04:20:15.944Z,22.50
2018-02-09T04:22:44.329Z,21.08
2018-02-09T04:25:12.701Z,24.15
2018-02-09T04:27:41.077Z,25.62
2018-02-09T04:30:09.438Z,21.95
2018-02-09T04:32:37.833Z,22.33
2018-02-09T04:35:06.166Z,19.30
2018-02-09T04:37:34.589Z,24.92
2018-02-09T04:40:02.920Z,24.63
2018-02-09T04:42:31.341Z,24.17
2018-02-09T04:44:59.669Z,25.17
2018-02-09T04:47:28.098Z,23.33
2018-02-09T04:49:56.425Z,22.13
2018-02-09T04:52:24.853Z,25.88
2018-02-09T04:54:53.233Z,26.10
2018-02-09T04:57:21.585Z,22.90
2018-02-09T04:59:49.996Z,26.05
2018-02-09T05:02:18.341Z,23.30
2018-02-09T05:04:46.687Z,23.92
2018-02-09T05:07:15.068Z,24.27
2018-02-09T05:09:43.377Z,26.48
2018-02-09T05:12:11.735Z,21.70
2018-02-09T05:14:40.098Z,25.15
2018-02-09T05:17:08.434Z,24.45
2018-02-09T05:19:36.776Z,23.00
2018-02-09T05:22:05.129Z,24.23
2018-02-09T05:24:33.458Z,22.60
2018-02-09T05:27:01.793Z,25.73
2018-02-09T05:29:30.143Z,25.25
2018-02-09T05:31:58.473Z,23.05
2018-02-09T05:34:26.821Z,24.02
2018-02-09T05:36:55.153Z,24.12
2018-02-09T05:39:23.505Z,23.25
2018-02-09T05:41:51.837Z,23.62
2018-02-09T05:44:20.191Z,22.62
2018-02-09T05:46:48.526Z,23.98
2018-02-09T05:49:16.882Z,23.25
2018-02-09T05:51:45.217Z,25.88
2018-02-09T05:54:13.568Z,24.50
2018-02-09T05:56:41.900Z,25.85
2018-02-09T05:59:10.254Z,22.60
2018-02-09T06:01:38.586Z,24.37
2018-02-09T06:04:06.942Z,24.98
2018-02-09T06:06:35.303Z,23.70
2018-02-09T06:09:03.633Z,24.45
2018-02-09T06:11:31.965Z,22.85
2018-02-09T06:14:00.330Z,20.62
2018-02-09T06:16:28.690Z,21.95
2018-02-09T06:18:57.042Z,24.37
2018-02-09T06:21:25.471Z,24.90
2018-02-09T06:23:53.822Z,26.87
2018-02-09T06:26:22.192Z,25.67
2018-02-09T06:28:51.877Z,26.17
2018-02-09T06:31:21.534Z,25.70
2018-02-09T06:33:49.845Z,28.27
2018-02-09T06:36:18.288Z,29.80
2018-02-09T06:38:46.612Z,30.40
2018-02-09T06:41:14.965Z,27.57
2018-02-09T06:43:43.301Z,26.48
2018-02-09T06:46:11.653Z,25.07
2018-02-09T06:48:40.026Z,22.13
2018-02-09T06:51:08.879Z,24.53
2018-02-09T06:53:37.850Z,25.00
2018-02-09T06:56:06.669Z,22.37
2018-02-09T06:58:36.109Z,25.23
2018-02-09T07:01:04.525Z,25.70
2018-02-09T07:03:32.881Z,25.90
2018-02-09T07:06:01.227Z,24.47
2018-02-09T07:08:29.589Z,25.40
2018-02-09T07:10:57.921Z,25.67
2018-02-09T07:13:26.281Z,25.40
2018-02-09T07:15:54.612Z,23.63
2018-02-09T07:18:22.974Z,22.10
2018-02-09T07:20:51.329Z,22.77
2018-02-09T07:23:19.685Z,24.40
2018-02-09T07:25:48.021Z,23.67
2018-02-09T07:28:16.389Z,23.67
2018-02-09T07:30:44.733Z,28.40
2018-02-09T07:33:13.071Z,24.10
2018-02-09T07:35:41.421Z,25.58
2018-02-09T07:38:09.763Z,21.53
2018-02-09T07:40:38.117Z,25.37
2018-02-09T07:43:06.460Z,22.62
2018-02-09T07:45:35.326Z,25.02
2018-02-09T07:48:03.661Z,26.30
2018-02-09T07:50:32.061Z,27.40
2018-02-09T07:53:00.952Z,28.50
2018-02-09T07:55:29.295Z,28.80
2018-02-09T07:57:57.633Z,25.83
2018-02-09T08:00:25.998Z,29.60
2018-02-09T08:02:54.334Z,28.55
2018-02-09T08:05:23.484Z,30.07
2018-02-09T08:07:51.906Z,29.40
2018-02-09T08:10:20.261Z,30.30
2018-02-09T08:12:48.649Z,34.70
2018-02-09T08:15:17.002Z,29.55
2018-02-09T08:17:45.373Z,30.90
2018-02-09T08:20:13.697Z,31.30
2018-02-09T08:22:42.058Z,26.85
2018-02-09T08:25:10.810Z,29.10
2018-02-09T08:27:39.153Z,30.63
2018-02-09T08:30:07.531Z,30.60
2018-02-09T08:32:35.845Z,26.70
2018-02-09T08:35:04.203Z,32.73
2018-02-09T08:37:32.545Z,31.43
2018-02-09T08:40:00.880Z,26.77
2018-02-09T08:42:29.571Z,31.87
2018-02-09T08:44:57.885Z,30.10
2018-02-09T08:47:26.248Z,29.63
2018-02-09T08:49:54.586Z,29.60
2018-02-09T08:52:22.977Z,29.07
2018-02-09T08:54:51.329Z,31.10
2018-02-09T08:57:19.697Z,33.30
2018-02-09T08:59:48.041Z,33.45
2018-02-09T09:02:16.400Z,31.80
2018-02-09T09:04:44.961Z,28.87
2018-02-09T09:07:13.326Z,29.20
2018-02-09T09:09:41.653Z,29.40
2018-02-09T09:12:09.990Z,31.30
2018-02-09T09:14:38.349Z,30.00
2018-02-09T09:17:06.681Z,33.20
2018-02-09T09:19:35.049Z,28.60
2018-02-09T09:22:03.392Z,33.87
2018-02-09T09:24:31.758Z,33.30
2018-02-09T09:27:00.090Z,34.10
2018-02-09T09:29:28.445Z,29.47
2018-02-09T09:31:56.777Z,26.10
2018-02-09T09:34:25.141Z,31.02
2018-02-09T09:36:53.473Z,26.83
2018-02-09T09:39:21.870Z,27.73
2018-02-09T09:41:50.205Z,29.10
2018-02-09T09:44:19.362Z,29.25
2018-02-09T09:46:47.697Z,27.07
2018-02-09T09:49:16.042Z,25.20
2018-02-09T09:51:44.523Z,27.60
2018-02-09T09:54:12.846Z,27.00
2018-02-09T09:56:41.214Z,27.87
2018-02-09T09:59:09.557Z,29.27
2018-02-09T10:01:37.916Z,28.57
2018-02-09T10:04:06.242Z,24.33
2018-02-09T10:06:35.518Z,28.38
2018-02-09T10:09:03.858Z,25.97
2018-02-09T10:11:32.205Z,26.00
2018-02-09T10:14:00.533Z,30.05
2018-02-09T10:16:28.886Z,35.30
2018-02-09T10:18:57.209Z,29.65
2018-02-09T10:21:25.700Z,28.45
2018-02-09T10:23:54.050Z,28.70
2018-02-09T10:26:22.400Z,25.37
2018-02-09T10:28:50.729Z,24.53
2018-02-09T10:31:19.077Z,25.67
2018-02-09T10:33:47.405Z,28.45
2018-02-09T10:36:15.764Z,26.23
2018-02-09T10:38:44.089Z,28.50
2018-02-09T10:41:12.421Z,27.03
2018-02-09T10:43:40.765Z,26.40
2018-02-09T10:46:09.095Z,27.42
2018-02-09T10:48:37.441Z,26.83
2018-02-09T10:51:05.768Z,26.43
2018-02-09T10:53:34.236Z,31.20
2018-02-09T10:56:02.564Z,27.13
2018-02-09T10:58:30.913Z,26.70
2018-02-09T11:00:59.265Z,27.08
2018-02-09T11:03:28.153Z,26.10
2018-02-09T11:05:56.494Z,28.97
2018-02-09T11:08:24.838Z,28.17
2018-02-09T11:10:53.169Z,26.25
2018-02-09T11:13:27.134Z,27.53
2018-02-09T11:15:55.458Z,26.07
2018-02-09T11:18:23.806Z,26.57
2018-02-09T11:20:52.133Z,26.90
2018-02-09T11:23:20.489Z,29.30
2018-02-09T11:25:48.813Z,28.67
2018-02-09T11:28:17.165Z,29.98
2018-02-09T11:30:45.493Z,28.00
2018-02-09T11:33:13.824Z,28.37
2018-02-09T11:35:42.182Z,27.13
2018-02-09T11:38:11.170Z,27.10
2018-02-09T11:40:39.513Z,29.48
2018-02-09T11:43:07.866Z,30.63
2018-02-09T11:45:36.212Z,28.43
2018-02-09T11:48:04.565Z,29.60
2018-02-09T11:50:32.913Z,29.27
2018-02-09T11:53:01.242Z,28.77
2018-02-09T11:55:29.602Z,27.60
2018-02-09T11:57:57.921Z,31.60
2018-02-09T12:00:26.277Z,31.17
2018-02-09T12:02:54.666Z,29.45
2018-02-09T12:05:23.018Z,28.77
2018-02-09T12:07:51.341Z,30.33
2018-02-09T12:10:19.689Z,31.97
2018-02-09T12:12:48.954Z,32.95
2018-02-09T12:15:17.305Z,31.67
2018-02-09T12:17:45.633Z,31.00
2018-02-09T12:20:13.990Z,32.53
2018-02-09T12:22:42.342Z,32.80
2018-02-09T12:25:10.734Z,33.33
2018-02-09T12:27:39.319Z,35.40
2018-02-09T12:30:07.765Z,34.27
2018-02-09T12:32:36.148Z,32.60
2018-02-09T12:35:04.489Z,32.77
2018-02-09T12:37:33.565Z,33.87
2018-02-09T12:40:01.934Z,36.17
2018-02-09T12:42:30.318Z,35.63
2018-02-09T12:44:58.661Z,30.83
2018-02-09T12:47:28.090Z,33.78
2018-02-09T12:49:56.425Z,32.67
2018-02-09T12:52:24.827Z,33.17
2018-02-09T12:54:53.163Z,35.00
2018-02-09T12:57:21.636Z,36.45
2018-02-09T12:59:50.045Z,34.40
2018-02-09T13:02:18.387Z,36.00
2018-02-09T13:04:46.713Z,30.43
2018-02-09T13:07:15.066Z,35.80
2018-02-09T13:09:43.397Z,32.90
2018-02-09T13:12:23.751Z,36.07
2018-02-09T13:14:52.188Z,38.90
2018-02-09T13:17:20.517Z,33.77
2018-02-09T13:19:48.854Z,36.60
2018-02-09T13:22:29.087Z,33.78
2018-02-09T13:24:57.412Z,35.17
2018-02-09T13:27:25.744Z,36.85
2018-02-09T13:29:54.105Z,35.90
2018-02-09T13:32:34.204Z,37.17
2018-02-09T13:35:02.537Z,35.87
2018-02-09T13:37:33.752Z,36.42
2018-02-09T13:40:02.105Z,34.58
2018-02-09T13:42:30.432Z,35.47
2018-02-09T13:44:58.780Z,33.83
2018-02-09T13:47:27.118Z,36.88
2018-02-09T13:49:55.481Z,36.50
2018-02-09T13:52:24.646Z,34.50
2018-02-09T13:54:53.019Z,35.40
2018-02-09T13:57:21.356Z,30.27
2018-02-09T13:59:49.719Z,35.70
2018-02-09T14:02:18.040Z,35.63
2018-02-09T14:04:46.390Z,33.03
2018-02-09T14:07:14.712Z,33.87
2018-02-09T14:09:43.102Z,33.33
2018-02-09T14:12:11.399Z,36.07
2018-02-09T14:14:39.742Z,32.07
2018-02-09T14:17:08.074Z,34.63
2018-02-09T14:19:36.420Z,36.80
2018-02-09T14:22:04.757Z,35.40
2018-02-09T14:24:33.118Z,30.97
2018-02-09T14:27:01.449Z,32.23
2018-02-09T14:29:29.805Z,32.53
2018-02-09T14:31:58.133Z,33.20
2018-02-09T14:34:26.465Z,33.50
2018-02-09T14:36:54.817Z,33.33
2018-02-09T14:39:23.145Z,33.10
2018-02-09T14:41:51.493Z,31.40
2018-02-09T14:44:19.817Z,32.57
2018-02-09T14:46:48.169Z,35.43
2018-02-09T14:49:16.498Z,32.67
2018-02-09T14:51:44.845Z,34.00
2018-02-09T14:54:13.175Z,36.10
2018-02-09T14:56:41.528Z,31.07
2018-02-09T14:59:09.853Z,31.70
2018-02-09T15:01:38.209Z,34.33
2018-02-09T15:04:06.537Z,32.97
2018-02-09T15:06:34.894Z,30.47
2018-02-09T15:09:03.226Z,31.15
2018-02-09T15:11:31.581Z,32.17
2018-02-09T15:13:59.905Z,32.97
2018-02-09T15:16:28.233Z,34.93
2018-02-09T15:18:56.582Z,31.50
2018-02-09T15:21:24.911Z,34.40
2018-02-09T15:23:53.257Z,33.47
2018-02-09T15:26:21.590Z,33.50
2018-02-09T15:28:49.942Z,33.90
2018-02-09T15:31:18.274Z,32.40
2018-02-09T15:33:46.617Z,32.37
2018-02-09T15:36:14.958Z,30.45
2018-02-09T15:38:43.323Z,33.97
2018-02-09T15:43:52.562Z,34.40
2018-02-09T15:46:20.890Z,32.95
2018-02-09T15:48:49.238Z,32.92
2018-02-09T15:51:17.569Z,35.92
2018-02-09T15:53:45.929Z,46.37
2018-02-09T15:56:14.301Z,50.12
2018-02-09T15:58:42.610Z,44.70
2018-02-09T16:01:10.966Z,36.95
2018-02-09T16:03:39.297Z,33.40
2018-02-09T16:06:07.649Z,31.42
2018-02-09T16:08:35.989Z,36.05
2018-02-09T16:11:04.338Z,31.02
2018-02-09T16:13:32.665Z,33.13
2018-02-09T16:16:01.903Z,32.97
2018-02-09T16:18:30.222Z,29.83
2018-02-09T16:20:58.569Z,32.40
2018-02-09T16:23:26.897Z,30.77
2018-02-09T16:25:56.158Z,33.10
2018-02-09T16:28:24.484Z,31.60
2018-02-09T16:30:52.828Z,31.48
2018-02-09T16:33:21.165Z,33.35
2018-02-09T16:35:49.566Z,31.65
2018-02-09T16:38:17.874Z,32.75
2018-02-09T16:40:46.197Z,31.98
2018-02-09T16:43:14.814Z,37.63
2018-02-09T16:45:43.374Z,36.17
2018-02-09T16:48:11.709Z,35.50
2018-02-09T16:50:40.039Z,31.50
2018-02-09T16:53:08.409Z,31.10
2018-02-09T16:55:36.724Z,30.37
2018-02-09T16:58:05.077Z,33.03
2018-02-09T17:00:33.460Z,31.97
2018-02-09T17:03:01.757Z,31.73
2018-02-09T17:05:30.086Z,31.48
2018-02-09T17:07:58.433Z,33.67
2018-02-09T17:10:26.765Z,34.20
2018-02-09T17:12:55.122Z,32.07
2018-02-09T17:15:23.445Z,32.10
2018-02-09T17:17:51.798Z,30.33
2018-02-09T17:20:20.121Z,30.73
2018-02-09T17:22:48.470Z,32.28
2018-02-09T17:25:16.798Z,32.70
2018-02-09T17:27:45.174Z,28.33
2018-02-09T17:30:13.498Z,30.27
2018-02-09T17:32:41.878Z,31.37
2018-02-09T17:35:10.206Z,30.07
2018-02-09T17:37:38.578Z,31.00
2018-02-09T17:40:06.937Z,32.43
2018-02-09T17:42:35.257Z,31.47
2018-02-09T17:45:04.245Z,30.40
2018-02-09T17:47:32.603Z,33.47
2018-02-09T17:50:00.945Z,31.73
2018-02-09T17:52:29.285Z,31.60
2018-02-09T17:54:57.637Z,29.07
2018-02-09T17:57:26.135Z,28.17
2018-02-09T17:59:54.594Z,28.60
2018-02-09T18:02:23.071Z,28.70
2018-02-09T18:04:51.502Z,27.17
2018-02-09T18:07:19.829Z,27.57
2018-02-09T18:09:48.355Z,28.20
2018-02-09T18:12:16.678Z,29.27
2018-02-09T18:14:45.134Z,27.90
2018-02-09T18:17:13.495Z,23.55
2018-02-09T18:19:41.846Z,24.50
2018-02-09T18:22:10.181Z,25.67
2018-02-09T18:24:38.505Z,29.50
2018-02-09T18:27:06.853Z,24.93
2018-02-09T18:29:35.181Z,27.80
2018-02-09T18:32:03.529Z,27.27
2018-02-09T18:34:31.901Z,25.17
2018-02-09T18:37:01.530Z,25.17
2018-02-09T18:39:29.862Z,25.40
2018-02-09T18:42:02.153Z,27.90
2018-02-09T18:44:30.482Z,26.57
2018-02-09T18:46:58.832Z,28.07
2018-02-09T18:49:27.162Z,25.07
2018-02-09T18:51:55.517Z,27.60
2018-02-09T18:54:24.870Z,27.85
2018-02-09T18:56:53.218Z,24.30
2018-02-09T18:59:21.629Z,32.90
2018-02-09T19:01:50.010Z,28.85
2018-02-09T19:04:18.387Z,29.23
2018-02-09T19:06:46.810Z,27.60
2018-02-09T19:09:15.130Z,28.30
2018-02-09T19:11:43.457Z,25.53
2018-02-09T19:14:11.812Z,28.37
2018-02-09T19:16:40.128Z,26.35
2018-02-09T19:19:08.481Z,28.60
2018-02-09T19:21:36.813Z,26.13
2018-02-09T19:24:05.157Z,28.60
2018-02-09T19:26:33.573Z,30.27
2018-02-09T19:29:01.950Z,29.07
2018-02-09T19:31:30.328Z,25.02
2018-02-09T19:33:58.678Z,28.60
2018-02-09T19:36:27.001Z,28.83
2018-02-09T19:38:55.357Z,26.17
2018-02-09T19:41:23.732Z,29.10
2018-02-09T19:43:52.089Z,28.30
2018-02-09T19:46:20.490Z,27.30
2018-02-09T19:48:48.836Z,27.73
2018-02-09T19:51:17.165Z,26.30
2018-02-09T19:53:45.777Z,26.80
2018-02-09T19:56:14.093Z,26.40
2018-02-09T19:58:42.426Z,27.50
2018-02-09T20:01:10.765Z,25.87
2018-02-09T20:03:39.093Z,28.90
2018-02-09T20:06:07.505Z,27.40
2018-02-09T20:08:35.833Z,29.10
2018-02-09T20:11:05.149Z,26.17
2018-02-09T20:13:33.561Z,27.90
2018-02-09T20:16:01.945Z,26.77
2018-02-09T20:18:30.321Z,26.13
2018-02-09T20:20:58.670Z,27.80
2018-02-09T20:23:26.997Z,26.75
2018-02-09T20:25:56.345Z,29.17
2018-02-09T20:28:24.673Z,28.75
2018-02-09T20:30:53.134Z,25.40
2018-02-09T20:33:21.469Z,27.67
2018-02-09T20:35:49.828Z,26.53
2018-02-09T20:38:18.159Z,27.30
2018-02-09T20:40:46.525Z,27.60
2018-02-09T20:43:14.900Z,26.50
2018-02-09T20:45:43.530Z,26.95
2018-02-09T20:48:11.861Z,28.27
2018-02-09T20:50:40.194Z,27.43
2018-02-09T20:53:08.618Z,26.20
2018-02-09T20:55:36.993Z,28.20
2018-02-09T20:58:05.341Z,27.07
2018-02-09T21:00:33.745Z,29.30
2018-02-09T21:03:02.281Z,26.27
2018-02-09T21:05:30.567Z,28.57
2018-02-09T21:07:58.913Z,26.70
2018-02-09T21:10:27.238Z,25.58
2018-02-09T21:12:56.099Z,27.53
2018-02-09T21:15:25.459Z,27.50
2018-02-09T21:17:53.871Z,25.50
2018-02-09T21:20:22.324Z,24.37
2018-02-09T21:22:50.781Z,23.43
2018-02-09T21:25:19.112Z,27.50
2018-02-09T21:27:47.533Z,25.37
2018-02-09T21:30:15.909Z,28.50
2018-02-09T21:32:44.257Z,26.40
2018-02-09T21:35:12.580Z,27.27
2018-02-09T21:37:40.933Z,26.10
2018-02-09T21:40:09.317Z,24.70
2018-02-09T21:42:37.701Z,29.08
2018-02-09T21:45:06.078Z,23.30
2018-02-09T21:47:34.405Z,25.17
2018-02-09T21:50:02.767Z,24.80
2018-02-09T21:52:31.092Z,25.57
2018-02-09T21:54:59.449Z,23.80
2018-02-09T21:57:27.864Z,24.45
2018-02-09T21:59:56.217Z,25.87
2018-02-09T22:02:24.559Z,23.40
2018-02-09T22:04:52.989Z,23.85
2018-02-09T22:07:21.370Z,22.97
2018-02-09T22:09:49.745Z,22.70
2018-02-09T22:12:18.081Z,23.23
2018-02-09T22:14:46.552Z,22.30
2018-02-09T22:17:15.186Z,24.97
2018-02-09T22:19:43.561Z,23.23
2018-02-09T22:22:11.938Z,23.42
2018-02-09T22:24:40.312Z,23.70
2018-02-09T22:27:08.673Z,23.00
2018-02-09T22:29:37.001Z,23.07
2018-02-09T22:32:05.441Z,22.73
2018-02-09T22:34:33.779Z,26.03
2018-02-09T22:37:02.133Z,28.48
2018-02-09T22:39:30.466Z,25.30
2018-02-09T22:41:58.825Z,27.48
2018-02-09T22:44:27.272Z,24.10
2018-02-09T22:46:56.505Z,24.95
2018-02-09T22:49:24.901Z,23.58
2018-02-09T22:51:53.277Z,23.03
2018-02-09T22:54:21.657Z,22.80
2018-02-09T22:56:50.013Z,24.73
2018-02-09T22:59:18.349Z,22.62
2018-02-09T23:01:46.685Z,22.77
2018-02-09T23:04:15.061Z,23.52
2018-02-09T23:06:43.393Z,24.47
2018-02-09T23:09:11.749Z,23.27
2018-02-09T23:11:40.088Z,24.00
2018-02-09T23:14:08.441Z,25.27
2018-02-09T23:16:38.029Z,23.27
2018-02-09T23:19:06.465Z,24.17
2018-02-09T23:21:34.796Z,23.50
2018-02-09T23:24:03.155Z,22.17
2018-02-09T23:26:31.488Z,25.70
2018-02-09T23:28:59.845Z,24.87
2018-02-09T23:31:28.242Z,28.10
2018-02-09T23:33:56.597Z,26.70
2018-02-09T23:36:24.938Z,27.65
2018-02-09T23:38:53.289Z,27.23
2018-02-09T23:41:21.844Z,26.63
2018-02-09T23:43:50.205Z,28.08
2018-02-09T23:46:18.597Z,28.43
2018-02-09T23:48:46.934Z,26.87
2018-02-09T23:51:15.365Z,25.65
2018-02-09T23:53:43.719Z,24.10
2018-02-09T23:56:12.081Z,28.87
2018-02-09T23:58:40.449Z,25.73
